Time;durP1;ratioP1;P1;durP2;ratioP2;P2;SDS_P1;SDS_P2;PMS_P1;PMS_P2;Temp;Humidity;BMP_temperature;BMP_pressure;BME280_temperature;BME280_humidity;BME280_pressure;Samples;Min_cycle;Max_cycle;Signal;HPM_P1;HPM_P2
2022/02/18 00:00:46;;;;;;;1.73;1.60;;;;;;;;;;4979102;28;20455;-72
2022/02/18 00:03:14;;;;;;;2.85;1.60;;;;;;;;;;4986180;28;20595;-72
2022/02/18 00:05:41;;;;;;;2.42;2.20;;;;;;;;;;4985957;28;20022;-72
2022/02/18 00:08:07;;;;;;;1.33;1.27;;;;;;;;;;4978715;28;20034;-72
2022/02/18 00:10:34;;;;;;;1.20;1.20;;;;;;;;;;4987853;28;20448;-72
2022/02/18 00:13:00;;;;;;;3.35;1.40;;;;;;;;;;4986969;28;20022;-73
2022/02/18 00:15:27;;;;;;;1.40;1.30;;;;;;;;;;4979901;28;20054;-72
2022/02/18 00:17:53;;;;;;;1.80;1.60;;;;;;;;;;4978460;28;20027;-72
2022/02/18 00:20:19;;;;;;;1.60;1.50;;;;;;;;;;4979805;28;20489;-72
2022/02/18 00:22:46;;;;;;;3.35;1.70;;;;;;;;;;4980925;28;20042;-72
2022/02/18 00:25:12;;;;;;;1.52;1.42;;;;;;;;;;4981113;28;20031;-72
2022/02/18 00:27:39;;;;;;;1.20;1.17;;;;;;;;;;4981362;28;20707;-72
2022/02/18 00:30:06;;;;;;;4.72;1.50;;;;;;;;;;4980709;28;20025;-72
2022/02/18 00:32:32;;;;;;;2.22;1.33;;;;;;;;;;4981965;28;20038;-73
2022/02/18 00:34:58;;;;;;;1.10;1.10;;;;;;;;;;4983067;28;20029;-72
2022/02/18 00:37:25;;;;;;;1.48;1.38;;;;;;;;;;4985990;28;20117;-72
2022/02/18 00:39:51;;;;;;;1.65;1.55;;;;;;;;;;4985863;28;20026;-72
2022/02/18 00:42:17;;;;;;;1.00;1.00;;;;;;;;;;4978080;28;20035;-72
2022/02/18 00:44:44;;;;;;;0.90;0.90;;;;;;;;;;4991866;28;20061;-73
2022/02/18 00:47:10;;;;;;;2.30;1.42;;;;;;;;;;4985947;28;20113;-73
2022/02/18 00:49:37;;;;;;;1.50;1.40;;;;;;;;;;4979138;28;20030;-73
2022/02/18 00:52:04;;;;;;;1.25;1.15;;;;;;;;;;4983327;28;20143;-72
2022/02/18 00:54:30;;;;;;;1.88;1.00;;;;;;;;;;4975360;28;20023;-72
2022/02/18 00:56:56;;;;;;;2.92;1.48;;;;;;;;;;4980832;28;20030;-73
2022/02/18 00:59:23;;;;;;;1.02;0.93;;;;;;;;;;4979637;28;20054;-72
2022/02/18 01:01:49;;;;;;;0.90;0.90;;;;;;;;;;4976657;28;20026;-73
2022/02/18 01:04:15;;;;;;;1.00;1.00;;;;;;;;;;4979124;28;20058;-73
2022/02/18 01:06:41;;;;;;;1.52;1.40;;;;;;;;;;4998849;28;20026;-73
2022/02/18 01:09:08;;;;;;;1.30;1.20;;;;;;;;;;4980183;28;20045;-73
2022/02/18 01:11:34;;;;;;;1.63;1.52;;;;;;;;;;4984105;28;20027;-72
2022/02/18 01:14:00;;;;;;;1.08;1.00;;;;;;;;;;4985881;28;20022;-72
2022/02/18 01:16:27;;;;;;;7.40;4.38;;;;;;;;;;4980233;28;20046;-72
2022/02/18 01:18:53;;;;;;;2.63;1.10;;;;;;;;;;4975749;28;20023;-73
2022/02/18 01:21:20;;;;;;;1.15;1.05;;;;;;;;;;4984063;28;20042;-73
2022/02/18 01:23:46;;;;;;;1.05;1.05;;;;;;;;;;4996585;28;20034;-73
2022/02/18 01:26:12;;;;;;;1.30;1.20;;;;;;;;;;4976595;28;20030;-73
2022/02/18 01:28:38;;;;;;;1.08;1.08;;;;;;;;;;4982141;28;20035;-73
2022/02/18 01:31:04;;;;;;;1.00;1.00;;;;;;;;;;4990871;28;20035;-73
2022/02/18 01:33:30;;;;;;;0.75;0.75;;;;;;;;;;4988521;28;20030;-73
2022/02/18 01:35:56;;;;;;;1.23;1.20;;;;;;;;;;4992521;28;20030;-72
2022/02/18 01:38:22;;;;;;;0.90;0.90;;;;;;;;;;5002512;28;20468;-73
2022/02/18 01:40:48;;;;;;;0.90;0.90;;;;;;;;;;4985968;28;20026;-73
2022/02/18 01:43:15;;;;;;;1.10;1.10;;;;;;;;;;4991829;28;20071;-72
2022/02/18 01:45:41;;;;;;;3.63;1.02;;;;;;;;;;4986307;28;20485;-73
2022/02/18 01:48:07;;;;;;;0.90;0.90;;;;;;;;;;4988252;28;20034;-73
2022/02/18 01:50:33;;;;;;;1.00;1.00;;;;;;;;;;4980966;28;20481;-73
2022/02/18 01:52:59;;;;;;;0.70;0.70;;;;;;;;;;4989250;28;20029;-73
2022/02/18 01:55:27;;;;;;;0.80;0.80;;;;;;;;;;4980104;28;20034;-72
2022/02/18 01:57:54;;;;;;;0.73;0.73;;;;;;;;;;4986460;28;20050;-72
2022/02/18 02:00:22;;;;;;;0.52;0.52;;;;;;;;;;4982355;28;20097;-72
2022/02/18 02:02:48;;;;;;;1.20;0.80;;;;;;;;;;4983852;28;20022;-72
2022/02/18 02:05:15;;;;;;;0.80;0.80;;;;;;;;;;4979028;28;20058;-73
2022/02/18 02:07:42;;;;;;;0.90;0.90;;;;;;;;;;4983865;28;20019;-72
2022/02/18 02:10:11;;;;;;;0.60;0.60;;;;;;;;;;4985639;28;20566;-72
2022/02/18 02:12:47;;;;;;;0.80;0.80;;;;;;;;;;4983387;28;20540;-72
2022/02/18 02:15:13;;;;;;;0.80;0.80;;;;;;;;;;5003248;28;20033;-73
2022/02/18 02:17:40;;;;;;;0.65;0.65;;;;;;;;;;4992222;28;20034;-73
2022/02/18 02:20:06;;;;;;;1.00;1.00;;;;;;;;;;5005225;28;20413;-73
2022/02/18 02:22:33;;;;;;;1.08;1.00;;;;;;;;;;4985465;28;20034;-73
2022/02/18 02:24:59;;;;;;;3.13;1.23;;;;;;;;;;4980533;28;20450;-73
2022/02/18 02:27:25;;;;;;;1.13;1.08;;;;;;;;;;4982376;28;20346;-73
2022/02/18 02:29:52;;;;;;;1.55;1.02;;;;;;;;;;4986891;28;20038;-73
2022/02/18 02:32:18;;;;;;;0.90;0.90;;;;;;;;;;4991138;28;20065;-73
2022/02/18 02:34:44;;;;;;;1.20;1.10;;;;;;;;;;4984512;28;20105;-72
2022/02/18 02:37:11;;;;;;;1.60;1.13;;;;;;;;;;4985658;28;20029;-72
2022/02/18 02:39:37;;;;;;;2.47;1.55;;;;;;;;;;4983078;28;20034;-73
2022/02/18 02:42:05;;;;;;;4.63;1.70;;;;;;;;;;4987812;28;20034;-73
2022/02/18 02:44:31;;;;;;;5.43;1.48;;;;;;;;;;4981306;28;20022;-72
2022/02/18 02:46:57;;;;;;;3.47;1.70;;;;;;;;;;4984351;28;20030;-73
2022/02/18 02:49:23;;;;;;;4.47;1.90;;;;;;;;;;4979875;28;20111;-73
2022/02/18 02:51:50;;;;;;;9.85;2.25;;;;;;;;;;4979941;28;20031;-73
2022/02/18 02:54:16;;;;;;;5.35;1.70;;;;;;;;;;4984349;28;20128;-73
2022/02/18 02:56:42;;;;;;;9.13;2.17;;;;;;;;;;4988252;28;20508;-72
2022/02/18 02:59:09;;;;;;;7.40;2.75;;;;;;;;;;4985442;28;20031;-73
2022/02/18 03:01:35;;;;;;;9.13;2.40;;;;;;;;;;4987154;28;20400;-73
2022/02/18 03:04:01;;;;;;;5.38;2.47;;;;;;;;;;4987203;28;20038;-72
2022/02/18 03:06:27;;;;;;;12.57;3.22;;;;;;;;;;4986731;28;20045;-73
2022/02/18 03:08:54;;;;;;;4.05;2.75;;;;;;;;;;4979783;28;20161;-72
2022/02/18 03:11:21;;;;;;;10.02;4.32;;;;;;;;;;4983709;28;20141;-73
2022/02/18 03:13:49;;;;;;;8.70;2.88;;;;;;;;;;4980625;28;20344;-73
2022/02/18 03:16:16;;;;;;;9.15;3.78;;;;;;;;;;4977172;28;20053;-73
2022/02/18 03:18:42;;;;;;;16.48;3.28;;;;;;;;;;4984487;28;20031;-73
2022/02/18 03:21:08;;;;;;;10.60;2.75;;;;;;;;;;4984631;28;20110;-72
2022/02/18 03:23:35;;;;;;;12.30;2.85;;;;;;;;;;4987783;28;20548;-73
2022/02/18 03:26:01;;;;;;;10.57;3.38;;;;;;;;;;4977006;28;20053;-72
2022/02/18 03:28:27;;;;;;;11.98;3.22;;;;;;;;;;4979469;28;20100;-73
2022/02/18 03:30:53;;;;;;;10.40;3.33;;;;;;;;;;4979104;28;20398;-72
2022/02/18 03:33:19;;;;;;;9.02;3.88;;;;;;;;;;4987132;28;20034;-73
2022/02/18 03:35:45;;;;;;;7.03;2.88;;;;;;;;;;4984344;28;20023;-73
2022/02/18 03:38:12;;;;;;;15.93;4.00;;;;;;;;;;4977527;28;20065;-73
2022/02/18 03:40:38;;;;;;;11.85;3.30;;;;;;;;;;4981685;28;20033;-73
2022/02/18 03:43:04;;;;;;;14.25;3.63;;;;;;;;;;4977955;28;20034;-73
2022/02/18 03:45:30;;;;;;;16.42;3.90;;;;;;;;;;4979207;28;20112;-73
2022/02/18 03:47:56;;;;;;;13.82;3.72;;;;;;;;;;4990489;28;20496;-72
2022/02/18 03:50:22;;;;;;;16.70;4.25;;;;;;;;;;4985962;28;20034;-73
2022/02/18 03:52:51;;;;;;;14.57;3.80;;;;;;;;;;4982081;28;20105;-73
2022/02/18 03:55:18;;;;;;;17.30;5.28;;;;;;;;;;4977216;28;20014;-72
2022/02/18 03:57:44;;;;;;;19.25;4.13;;;;;;;;;;4977637;28;20026;-73
2022/02/18 04:00:11;;;;;;;12.07;3.35;;;;;;;;;;4983007;28;20513;-71
2022/02/18 04:02:37;;;;;;;18.13;3.88;;;;;;;;;;4997586;28;20034;-73
2022/02/18 04:05:04;;;;;;;15.00;4.43;;;;;;;;;;4986412;28;20081;-73
2022/02/18 04:07:30;;;;;;;13.25;4.30;;;;;;;;;;4983247;28;20496;-73
2022/02/18 04:09:56;;;;;;;20.85;5.32;;;;;;;;;;4991885;28;20117;-73
2022/02/18 04:12:23;;;;;;;15.50;3.60;;;;;;;;;;4981450;28;20062;-73
2022/02/18 04:14:49;;;;;;;14.88;4.15;;;;;;;;;;4974057;28;20040;-73
2022/02/18 04:17:15;;;;;;;14.75;4.18;;;;;;;;;;4979640;28;20046;-73
2022/02/18 04:19:41;;;;;;;11.68;3.20;;;;;;;;;;4979512;28;20056;-73
2022/02/18 04:22:07;;;;;;;16.27;3.70;;;;;;;;;;4980476;28;20027;-72
2022/02/18 04:24:33;;;;;;;17.92;4.45;;;;;;;;;;4978653;28;20355;-73
2022/02/18 04:26:59;;;;;;;17.52;4.05;;;;;;;;;;4975690;28;20034;-73
2022/02/18 04:29:26;;;;;;;21.65;4.68;;;;;;;;;;4979897;28;20436;-73
2022/02/18 04:31:52;;;;;;;15.68;4.80;;;;;;;;;;4988444;28;20030;-72
2022/02/18 04:34:18;;;;;;;15.50;4.22;;;;;;;;;;4979733;28;20035;-72
2022/02/18 04:36:44;;;;;;;18.77;4.47;;;;;;;;;;4976076;28;20500;-72
2022/02/18 04:39:10;;;;;;;12.40;3.22;;;;;;;;;;4980629;28;20102;-73
2022/02/18 04:41:38;;;;;;;11.50;3.35;;;;;;;;;;4975490;28;20042;-72
2022/02/18 04:44:05;;;;;;;16.10;3.92;;;;;;;;;;4978666;28;20046;-73
2022/02/18 04:46:31;;;;;;;7.80;2.83;;;;;;;;;;4978660;28;20030;-72
2022/02/18 04:48:57;;;;;;;15.10;3.97;;;;;;;;;;4976798;28;20432;-72
2022/02/18 04:51:23;;;;;;;10.57;3.28;;;;;;;;;;4982878;28;20074;-72
2022/02/18 04:53:50;;;;;;;7.40;2.60;;;;;;;;;;4982718;28;20102;-72
2022/02/18 04:56:16;;;;;;;11.68;3.42;;;;;;;;;;4993397;28;20513;-72
2022/02/18 04:58:42;;;;;;;9.07;3.13;;;;;;;;;;4975497;28;20030;-73
2022/02/18 05:01:11;;;;;;;10.02;2.67;;;;;;;;;;4985768;28;20106;-73
2022/02/18 05:03:38;;;;;;;9.73;3.05;;;;;;;;;;4981954;28;20030;-74
2022/02/18 05:06:04;;;;;;;7.68;2.28;;;;;;;;;;4988634;28;20030;-73
2022/02/18 05:08:31;;;;;;;8.68;2.63;;;;;;;;;;4983402;28;20038;-74
2022/02/18 05:10:57;;;;;;;10.13;2.63;;;;;;;;;;4990581;28;20042;-73
2022/02/18 05:13:23;;;;;;;7.47;2.30;;;;;;;;;;4988377;28;20034;-72
2022/02/18 05:15:49;;;;;;;8.15;2.65;;;;;;;;;;5004444;28;20124;-72
2022/02/18 05:18:15;;;;;;;4.80;2.10;;;;;;;;;;4991956;28;20401;-72
2022/02/18 05:20:41;;;;;;;3.25;1.50;;;;;;;;;;4986075;28;20030;-72
2022/02/18 05:23:07;;;;;;;3.40;1.52;;;;;;;;;;4977485;28;20026;-72
2022/02/18 05:25:34;;;;;;;2.47;1.33;;;;;;;;;;4985136;28;20097;-72
2022/02/18 05:28:02;;;;;;;2.70;1.25;;;;;;;;;;4993664;28;20029;-72
2022/02/18 05:30:28;;;;;;;5.18;1.80;;;;;;;;;;4980332;28;20121;-72
2022/02/18 05:32:55;;;;;;;3.67;1.40;;;;;;;;;;4977659;28;20033;-71
2022/02/18 05:35:21;;;;;;;3.13;1.70;;;;;;;;;;4981121;28;20034;-72
2022/02/18 05:37:47;;;;;;;3.72;2.05;;;;;;;;;;4978170;28;20058;-72
2022/02/18 05:40:14;;;;;;;5.45;1.80;;;;;;;;;;4985089;28;20029;-72
2022/02/18 05:42:40;;;;;;;5.57;2.38;;;;;;;;;;4982555;28;20027;-72
2022/02/18 05:45:07;;;;;;;6.60;1.95;;;;;;;;;;4987958;28;20045;-72
2022/02/18 05:47:36;;;;;;;3.50;1.52;;;;;;;;;;4992357;28;20027;-72
2022/02/18 05:50:08;;;;;;;3.13;1.60;;;;;;;;;;4986614;28;20034;-72
2022/02/18 05:52:35;;;;;;;3.47;1.60;;;;;;;;;;5001407;28;20079;-72
2022/02/18 05:55:01;;;;;;;5.07;1.90;;;;;;;;;;4982389;28;20474;-72
2022/02/18 05:57:27;;;;;;;2.42;1.65;;;;;;;;;;4981124;28;20034;-72
2022/02/18 05:59:53;;;;;;;4.72;1.50;;;;;;;;;;4982614;28;20034;-72
2022/02/18 06:02:20;;;;;;;2.85;1.33;;;;;;;;;;4983428;28;20493;-73
2022/02/18 06:04:46;;;;;;;3.45;2.28;;;;;;;;;;4981078;28;20042;-73
2022/02/18 06:07:12;;;;;;;1.92;1.73;;;;;;;;;;4983752;28;20038;-72
2022/02/18 06:09:38;;;;;;;2.90;1.50;;;;;;;;;;4993068;28;20034;-72
2022/02/18 06:12:04;;;;;;;3.03;1.40;;;;;;;;;;4977414;28;20054;-72
2022/02/18 06:14:30;;;;;;;2.45;1.55;;;;;;;;;;4984125;28;20421;-71
2022/02/18 06:16:56;;;;;;;3.17;1.30;;;;;;;;;;4981337;28;20130;-72
2022/02/18 06:19:22;;;;;;;5.93;2.25;;;;;;;;;;4989874;28;20026;-73
2022/02/18 06:21:48;;;;;;;3.78;1.60;;;;;;;;;;4979104;28;20105;-71
2022/02/18 06:24:14;;;;;;;3.92;1.75;;;;;;;;;;4985074;28;20035;-72
2022/02/18 06:26:40;;;;;;;3.35;1.58;;;;;;;;;;4986594;28;20489;-72
2022/02/18 06:29:07;;;;;;;5.47;1.63;;;;;;;;;;4988428;28;20097;-72
2022/02/18 06:31:33;;;;;;;4.32;2.00;;;;;;;;;;4983669;28;20031;-72
2022/02/18 06:33:59;;;;;;;3.92;1.92;;;;;;;;;;4982937;28;20539;-72
2022/02/18 06:36:25;;;;;;;2.53;1.65;;;;;;;;;;4984223;28;20037;-73
2022/02/18 06:38:51;;;;;;;4.75;1.80;;;;;;;;;;4985639;28;20037;-72
2022/02/18 06:41:18;;;;;;;2.65;1.42;;;;;;;;;;4983757;28;20035;-72
2022/02/18 06:43:44;;;;;;;3.47;1.60;;;;;;;;;;4985577;28;20026;-73
2022/02/18 06:46:10;;;;;;;2.60;1.70;;;;;;;;;;4978949;28;20034;-73
2022/02/18 06:48:36;;;;;;;3.00;1.60;;;;;;;;;;4980348;28;20037;-73
2022/02/18 06:51:02;;;;;;;3.28;1.38;;;;;;;;;;4985854;28;20031;-73
2022/02/18 06:53:28;;;;;;;2.75;1.50;;;;;;;;;;4984930;28;20139;-73
2022/02/18 06:55:54;;;;;;;1.88;1.42;;;;;;;;;;4988916;28;20037;-72
2022/02/18 06:58:20;;;;;;;5.38;1.75;;;;;;;;;;4983353;28;20033;-73
2022/02/18 07:00:48;;;;;;;5.57;1.73;;;;;;;;;;4981553;28;20034;-73
2022/02/18 07:03:14;;;;;;;3.17;1.15;;;;;;;;;;4978666;28;20124;-71
2022/02/18 07:05:40;;;;;;;4.45;1.50;;;;;;;;;;4979473;28;20137;-72
2022/02/18 07:08:06;;;;;;;6.40;2.15;;;;;;;;;;4983139;28;20543;-72
2022/02/18 07:10:32;;;;;;;3.83;1.65;;;;;;;;;;4984493;28;20040;-72
2022/02/18 07:12:59;;;;;;;3.67;1.77;;;;;;;;;;4979039;28;20029;-72
2022/02/18 07:15:26;;;;;;;1.83;1.65;;;;;;;;;;4991956;28;20038;-72
2022/02/18 07:17:52;;;;;;;3.67;1.60;;;;;;;;;;4990281;28;20018;-72
2022/02/18 07:20:18;;;;;;;6.18;1.95;;;;;;;;;;4981845;28;20548;-72
2022/02/18 07:22:44;;;;;;;4.85;2.08;;;;;;;;;;4981215;28;20370;-72
2022/02/18 07:25:11;;;;;;;4.75;2.35;;;;;;;;;;4980623;28;20027;-72
2022/02/18 07:27:37;;;;;;;1.92;1.73;;;;;;;;;;4998460;28;20528;-72
2022/02/18 07:30:04;;;;;;;8.02;2.47;;;;;;;;;;4993466;28;20397;-71
2022/02/18 07:32:30;;;;;;;9.60;2.63;;;;;;;;;;4992581;28;20518;-72
2022/02/18 07:34:56;;;;;;;5.70;2.13;;;;;;;;;;4979155;28;20110;-72
2022/02/18 07:37:22;;;;;;;6.45;2.50;;;;;;;;;;4981028;28;20516;-72
2022/02/18 07:39:48;;;;;;;6.10;2.28;;;;;;;;;;4981726;28;20030;-72
2022/02/18 07:42:15;;;;;;;12.02;3.05;;;;;;;;;;4997087;28;20042;-70
2022/02/18 07:44:41;;;;;;;7.40;2.65;;;;;;;;;;4980677;28;20106;-71
2022/02/18 07:47:08;;;;;;;8.82;2.53;;;;;;;;;;4978750;28;20034;-72
2022/02/18 07:49:34;;;;;;;10.88;2.75;;;;;;;;;;4986521;28;20054;-71
2022/02/18 07:52:02;;;;;;;9.70;2.95;;;;;;;;;;4977888;28;20038;-72
2022/02/18 07:54:28;;;;;;;5.35;2.28;;;;;;;;;;4997580;28;20125;-72
2022/02/18 07:56:54;;;;;;;6.85;2.17;;;;;;;;;;4982249;28;20030;-72
2022/02/18 07:59:20;;;;;;;6.28;2.13;;;;;;;;;;4985057;28;20482;-72
2022/02/18 08:01:46;;;;;;;3.67;2.65;;;;;;;;;;4978753;28;20061;-72
2022/02/18 08:04:12;;;;;;;10.40;2.53;;;;;;;;;;4977213;28;20026;-72
2022/02/18 08:06:39;;;;;;;9.75;2.50;;;;;;;;;;4980419;28;20034;-72
2022/02/18 08:09:05;;;;;;;7.78;2.38;;;;;;;;;;4981982;28;20080;-72
2022/02/18 08:11:31;;;;;;;11.18;4.22;;;;;;;;;;4975377;28;20042;-72
2022/02/18 08:13:59;;;;;;;9.20;2.83;;;;;;;;;;4977449;28;20106;-72
2022/02/18 08:16:27;;;;;;;7.82;2.38;;;;;;;;;;4977030;28;20062;-72
2022/02/18 08:18:54;;;;;;;9.85;3.35;;;;;;;;;;4976993;28;20051;-72
2022/02/18 08:21:20;;;;;;;12.18;2.75;;;;;;;;;;4980006;28;20046;-73
2022/02/18 08:23:47;;;;;;;7.43;3.13;;;;;;;;;;4994088;28;20037;-72
2022/02/18 08:26:13;;;;;;;10.40;3.25;;;;;;;;;;4981480;28;20026;-72
2022/02/18 08:28:39;;;;;;;9.68;3.20;;;;;;;;;;4975452;28;20081;-72
2022/02/18 08:31:05;;;;;;;17.20;4.53;;;;;;;;;;4976011;28;20603;-71
2022/02/18 08:33:31;;;;;;;6.68;2.75;;;;;;;;;;4976437;28;20125;-72
2022/02/18 08:35:57;;;;;;;12.18;3.47;;;;;;;;;;4973803;28;20023;-70
2022/02/18 08:38:23;;;;;;;10.95;2.95;;;;;;;;;;4981117;28;20027;-71
2022/02/18 08:40:49;;;;;;;10.27;3.20;;;;;;;;;;4986673;28;20101;-71
2022/02/18 08:43:15;;;;;;;11.02;3.38;;;;;;;;;;4984281;28;20019;-71
2022/02/18 08:45:43;;;;;;;12.57;2.97;;;;;;;;;;4989533;28;20030;-73
2022/02/18 08:48:09;;;;;;;13.30;3.97;;;;;;;;;;4986771;28;20064;-72
2022/02/18 08:50:35;;;;;;;11.57;3.17;;;;;;;;;;4979739;28;20061;-72
2022/02/18 08:53:01;;;;;;;8.05;3.65;;;;;;;;;;4982978;28;20026;-72
2022/02/18 08:55:29;;;;;;;7.75;3.40;;;;;;;;;;4990005;28;20054;-72
2022/02/18 08:57:57;;;;;;;14.15;3.10;;;;;;;;;;4988524;28;20421;-72
2022/02/18 09:00:23;;;;;;;7.57;3.10;;;;;;;;;;4979254;28;20355;-71
2022/02/18 09:02:50;;;;;;;8.20;2.63;;;;;;;;;;4983510;28;20084;-71
2022/02/18 09:05:16;;;;;;;6.07;2.75;;;;;;;;;;4984184;28;20039;-72
2022/02/18 09:07:44;;;;;;;11.50;2.78;;;;;;;;;;4984729;28;20676;-73
2022/02/18 09:10:11;;;;;;;7.43;2.35;;;;;;;;;;4986948;28;20536;-72
2022/02/18 09:12:39;;;;;;;6.10;2.22;;;;;;;;;;4996505;28;20155;-72
2022/02/18 09:15:09;;;;;;;1.00;1.00;;;;;;;;;;4988706;28;20030;-72
2022/02/18 09:17:35;;;;;;;1.27;1.15;;;;;;;;;;4984708;28;20685;-73
2022/02/18 09:20:01;;;;;;;1.02;0.95;;;;;;;;;;4994565;28;20497;-72
2022/02/18 09:22:27;;;;;;;1.27;1.23;;;;;;;;;;4986676;28;20032;-73
2022/02/18 09:24:54;;;;;;;1.70;1.30;;;;;;;;;;4982007;28;20039;-72
2022/02/18 09:27:20;;;;;;;1.48;1.35;;;;;;;;;;4988812;28;20026;-73
2022/02/18 09:29:46;;;;;;;1.75;1.65;;;;;;;;;;5003585;28;20397;-73
2022/02/18 09:32:14;;;;;;;1.40;1.30;;;;;;;;;;4987681;28;20026;-72
2022/02/18 09:34:40;;;;;;;1.73;1.40;;;;;;;;;;4988313;28;20026;-72
2022/02/18 09:37:06;;;;;;;1.48;1.30;;;;;;;;;;4981395;28;20035;-73
2022/02/18 09:39:32;;;;;;;1.40;1.30;;;;;;;;;;4996904;28;20146;-72
2022/02/18 09:41:59;;;;;;;1.10;1.10;;;;;;;;;;5003718;28;20117;-72
2022/02/18 09:44:27;;;;;;;1.58;1.15;;;;;;;;;;4990362;28;20053;-72
2022/02/18 09:46:53;;;;;;;1.40;1.30;;;;;;;;;;4983260;28;20034;-73
2022/02/18 09:49:19;;;;;;;1.13;1.05;;;;;;;;;;4980285;28;20030;-72
2022/02/18 09:51:46;;;;;;;1.30;1.20;;;;;;;;;;4974214;28;20050;-72
2022/02/18 09:54:12;;;;;;;2.20;1.30;;;;;;;;;;4983667;28;20053;-72
2022/02/18 09:56:40;;;;;;;2.28;1.83;;;;;;;;;;4986448;28;20030;-71
2022/02/18 09:59:08;;;;;;;1.55;1.45;;;;;;;;;;4985241;28;20027;-72
2022/02/18 10:01:35;;;;;;;2.67;1.95;;;;;;;;;;4985974;28;20030;-72
2022/02/18 10:04:01;;;;;;;1.20;1.10;;;;;;;;;;4983378;28;20034;-71
2022/02/18 10:06:31;;;;;;;1.10;1.10;;;;;;;;;;4995089;28;20034;-73
2022/02/18 10:08:58;;;;;;;1.10;1.10;;;;;;;;;;4980880;28;20034;-72
2022/02/18 10:11:24;;;;;;;1.30;1.20;;;;;;;;;;4981735;28;20026;-72
2022/02/18 10:13:53;;;;;;;1.00;1.00;;;;;;;;;;4984438;28;20030;-71
2022/02/18 10:16:23;;;;;;;0.95;0.95;;;;;;;;;;4997041;28;20049;-71
2022/02/18 10:18:54;;;;;;;2.08;1.40;;;;;;;;;;4981288;28;20032;-71
2022/02/18 10:21:30;;;;;;;1.10;1.10;;;;;;;;;;4980339;28;20034;-72
2022/02/18 10:24:09;;;;;;;1.08;0.80;;;;;;;;;;4978605;28;20041;-71
2022/02/18 10:26:38;;;;;;;1.27;1.05;;;;;;;;;;4978331;28;20049;-72
2022/02/18 10:29:04;;;;;;;1.05;0.90;;;;;;;;;;4980815;28;20437;-71
2022/02/18 10:31:30;;;;;;;1.00;1.00;;;;;;;;;;4981951;28;20030;-70
2022/02/18 10:34:04;;;;;;;1.00;1.00;;;;;;;;;;4977902;28;20026;-71
2022/02/18 10:36:36;;;;;;;1.30;1.20;;;;;;;;;;4998603;28;20028;-73
2022/02/18 10:39:21;;;;;;;0.90;0.90;;;;;;;;;;4979549;28;20885;-71
2022/02/18 10:41:57;;;;;;;0.80;0.80;;;;;;;;;;4982644;28;20077;-71
2022/02/18 10:44:24;;;;;;;1.10;1.10;;;;;;;;;;4997146;28;20030;-72
2022/02/18 10:46:55;;;;;;;0.90;0.90;;;;;;;;;;4980934;28;20066;-72
2022/02/18 10:49:26;;;;;;;1.10;1.10;;;;;;;;;;4997827;28;20074;-72
2022/02/18 10:51:53;;;;;;;1.00;1.00;;;;;;;;;;4982577;28;20026;-72
2022/02/18 10:54:39;;;;;;;1.92;1.40;;;;;;;;;;4996919;28;20031;-72
2022/02/18 10:57:22;;;;;;;1.33;1.23;;;;;;;;;;4983261;28;20038;-70
2022/02/18 10:59:49;;;;;;;1.23;1.13;;;;;;;;;;4981337;28;20034;-73
2022/02/18 11:02:35;;;;;;;1.45;1.30;;;;;;;;;;4995125;28;20038;-72
2022/02/18 11:05:19;;;;;;;2.13;1.98;;;;;;;;;;4997303;28;20026;-73
2022/02/18 11:07:45;;;;;;;1.60;1.50;;;;;;;;;;4982282;28;20026;-73
2022/02/18 11:10:28;;;;;;;1.70;1.60;;;;;;;;;;4982174;28;20414;-73
2022/02/18 11:12:55;;;;;;;2.10;1.50;;;;;;;;;;4983779;28;20034;-74
2022/02/18 11:15:22;;;;;;;3.17;1.80;;;;;;;;;;4982970;28;20104;-72
2022/02/18 11:17:49;;;;;;;3.40;2.35;;;;;;;;;;4981269;28;20547;-72
2022/02/18 11:20:15;;;;;;;3.03;1.92;;;;;;;;;;4981792;28;20041;-72
2022/02/18 11:22:44;;;;;;;4.05;1.90;;;;;;;;;;4982289;28;20105;-73
2022/02/18 11:25:11;;;;;;;1.95;1.35;;;;;;;;;;4980256;28;20503;-72
2022/02/18 11:27:38;;;;;;;5.30;1.77;;;;;;;;;;5001411;28;20084;-73
2022/02/18 11:30:05;;;;;;;4.82;1.88;;;;;;;;;;4981061;28;20026;-73
2022/02/18 11:32:34;;;;;;;4.93;1.77;;;;;;;;;;4982023;28;20041;-73
2022/02/18 11:35:03;;;;;;;4.05;1.60;;;;;;;;;;4998362;28;20030;-73
2022/02/18 11:37:29;;;;;;;5.93;1.58;;;;;;;;;;4982875;28;20023;-72
2022/02/18 11:40:03;;;;;;;4.10;1.60;;;;;;;;;;4979793;28;20034;-72
2022/02/18 11:42:41;;;;;;;3.47;1.75;;;;;;;;;;4977060;28;20030;-73
2022/02/18 11:45:17;;;;;;;4.13;1.67;;;;;;;;;;4979809;28;20091;-72
2022/02/18 11:47:43;;;;;;;4.28;1.73;;;;;;;;;;4977680;28;20030;-72
2022/02/18 11:50:14;;;;;;;4.40;1.80;;;;;;;;;;4978088;28;20034;-72
2022/02/18 11:52:44;;;;;;;5.53;1.63;;;;;;;;;;4973888;28;20042;-72
2022/02/18 11:55:34;;;;;;;3.10;1.90;;;;;;;;;;4983023;28;20033;-73
2022/02/18 11:58:04;;;;;;;4.13;1.83;;;;;;;;;;4979512;28;20558;-72
2022/02/18 12:00:38;;;;;;;3.70;2.08;;;;;;;;;;4980400;28;20058;-72
2022/02/18 12:03:11;;;;;;;4.95;2.10;;;;;;;;;;4977807;28;20026;-71
2022/02/18 12:05:57;;;;;;;5.50;2.10;;;;;;;;;;4977848;28;20038;-73
2022/02/18 12:08:23;;;;;;;;;;;;;;;;;;4977463;28;20038;-74
2022/02/18 12:10:57;;;;;;;9.25;2.45;;;;;;;;;;4981412;28;20407;-74
2022/02/18 12:13:23;;;;;;;5.60;2.13;;;;;;;;;;4982260;28;20030;-72
2022/02/18 12:15:49;;;;;;;7.65;2.38;;;;;;;;;;4980091;28;20051;-74
2022/02/18 12:18:25;;;;;;;6.57;2.58;;;;;;;;;;4994337;28;20034;-72
2022/02/18 12:21:06;;;;;;;4.97;2.30;;;;;;;;;;4982641;28;20022;-73
2022/02/18 12:23:41;;;;;;;5.88;2.08;;;;;;;;;;4996025;28;21443;-72
2022/02/18 12:26:19;;;;;;;10.82;3.65;;;;;;;;;;4977930;28;20025;-73
2022/02/18 12:28:49;;;;;;;4.47;2.10;;;;;;;;;;4978411;28;20030;-73
2022/02/18 12:31:16;;;;;;;3.72;2.20;;;;;;;;;;4995137;28;20061;-72
2022/02/18 12:33:43;;;;;;;8.50;2.50;;;;;;;;;;4978176;28;20112;-73
2022/02/18 12:36:11;;;;;;;6.47;2.35;;;;;;;;;;4981893;28;20072;-72
2022/02/18 12:38:49;;;;;;;7.80;2.55;;;;;;;;;;4997141;28;20030;-73
2022/02/18 12:41:16;;;;;;;8.55;3.25;;;;;;;;;;4978969;28;20056;-73
2022/02/18 12:43:42;;;;;;;12.32;2.88;;;;;;;;;;4981617;28;20042;-72
2022/02/18 12:46:12;;;;;;;7.55;2.58;;;;;;;;;;4980778;28;20566;-72
2022/02/18 12:48:43;;;;;;;5.78;2.42;;;;;;;;;;4980894;28;20503;-72
2022/02/18 12:51:26;;;;;;;3.22;2.10;;;;;;;;;;4997963;28;20034;-73
2022/02/18 12:53:56;;;;;;;9.07;2.88;;;;;;;;;;4978328;28;20030;-72
2022/02/18 12:56:27;;;;;;;11.23;3.05;;;;;;;;;;4984411;28;20047;-72
2022/02/18 12:58:58;;;;;;;8.65;2.30;;;;;;;;;;4980448;28;20018;-71
2022/02/18 13:01:28;;;;;;;9.02;2.90;;;;;;;;;;4979907;28;20084;-72
2022/02/18 13:03:55;;;;;;;9.05;2.97;;;;;;;;;;4978419;28;20036;-73
2022/02/18 13:06:22;;;;;;;8.98;3.15;;;;;;;;;;4974567;28;20031;-73
2022/02/18 13:08:49;;;;;;;12.25;2.90;;;;;;;;;;4978885;28;20035;-73
2022/02/18 13:11:16;;;;;;;9.10;2.97;;;;;;;;;;4973831;28;20042;-72
2022/02/18 13:13:44;;;;;;;9.77;3.00;;;;;;;;;;4975141;28;20054;-73
2022/02/18 13:16:11;;;;;;;9.48;3.10;;;;;;;;;;4975071;28;20052;-73
2022/02/18 13:18:40;;;;;;;7.47;4.28;;;;;;;;;;4976065;28;20026;-74
2022/02/18 13:21:07;;;;;;;8.95;3.40;;;;;;;;;;4974565;28;20057;-72
2022/02/18 13:23:34;;;;;;;10.07;2.30;;;;;;;;;;4971945;28;20421;-74
2022/02/18 13:26:08;;;;;;;9.15;3.42;;;;;;;;;;4978433;28;20026;-74
2022/02/18 13:28:35;;;;;;;7.95;3.78;;;;;;;;;;4977118;28;20084;-74
2022/02/18 13:31:06;;;;;;;5.10;2.38;;;;;;;;;;4978283;28;20030;-73
2022/02/18 13:33:52;;;;;;;11.65;4.70;;;;;;;;;;4976329;28;20029;-73
2022/02/18 13:36:23;;;;;;;4.38;2.00;;;;;;;;;;4978803;28;20022;-73
2022/02/18 13:39:00;;;;;;;6.72;2.70;;;;;;;;;;4975864;28;20037;-73
2022/02/18 13:41:41;;;;;;;6.07;1.90;;;;;;;;;;4977731;28;21814;-73
2022/02/18 13:44:08;;;;;;;3.95;1.92;;;;;;;;;;4971597;28;20071;-73
2022/02/18 13:46:34;;;;;;;8.52;2.85;;;;;;;;;;4977207;28;20117;-74
2022/02/18 13:49:01;;;;;;;5.32;2.85;;;;;;;;;;4979542;28;20125;-73
2022/02/18 13:51:31;;;;;;;4.65;2.78;;;;;;;;;;4980928;28;20041;-73
2022/02/18 13:53:58;;;;;;;5.35;2.15;;;;;;;;;;4979251;28;20022;-73
2022/02/18 13:56:34;;;;;;;3.78;2.08;;;;;;;;;;4979475;28;20285;-73
2022/02/18 13:59:17;;;;;;;6.07;2.20;;;;;;;;;;4979791;28;20124;-73
2022/02/18 14:01:43;;;;;;;3.55;2.63;;;;;;;;;;4994698;28;20375;-73
2022/02/18 14:04:15;;;;;;;6.45;2.03;;;;;;;;;;4984476;28;20042;-72
2022/02/18 14:06:42;;;;;;;5.28;2.28;;;;;;;;;;4984560;28;20081;-73
2022/02/18 14:09:08;;;;;;;5.55;1.88;;;;;;;;;;4982249;28;20108;-73
2022/02/18 14:11:35;;;;;;;3.60;2.13;;;;;;;;;;4979767;28;20529;-72
2022/02/18 14:14:16;;;;;;;4.95;2.80;;;;;;;;;;4977657;28;20030;-73
2022/02/18 14:16:49;;;;;;;5.30;2.20;;;;;;;;;;4980139;28;20038;-74
2022/02/18 14:19:15;;;;;;;3.75;2.05;;;;;;;;;;4982537;28;20053;-73
2022/02/18 14:21:42;;;;;;;5.25;1.92;;;;;;;;;;4982831;28;20065;-73
2022/02/18 14:24:08;;;;;;;3.03;2.10;;;;;;;;;;4983537;28;20504;-74
2022/02/18 14:26:34;;;;;;;5.50;1.92;;;;;;;;;;4982549;28;20026;-74
2022/02/18 14:29:05;;;;;;;3.22;1.98;;;;;;;;;;4982046;28;20035;-73
2022/02/18 14:31:32;;;;;;;3.83;1.92;;;;;;;;;;4983867;28;20035;-74
2022/02/18 14:34:05;;;;;;;5.30;2.28;;;;;;;;;;4981792;28;20023;-72
2022/02/18 14:36:31;;;;;;;3.58;1.90;;;;;;;;;;4997300;28;20042;-72
2022/02/18 14:38:57;;;;;;;5.65;2.40;;;;;;;;;;4984860;28;20022;-74
2022/02/18 14:41:23;;;;;;;4.10;2.00;;;;;;;;;;4983407;28;20045;-73
2022/02/18 14:43:55;;;;;;;3.78;1.60;;;;;;;;;;4981450;28;20030;-72